Aviation Digital Data Service (ADDS)

Output produced by METARs form (0306 UTC 16 July 2018)
found at http://aviationweather.gov/adds/metars/
 
METAR text: KONP 160255Z AUTO 34007KT 4SM BR OVC003 15/13 A3003 RMK AO2
Conditions at: KONP (NEWPORT , OR, US) observed 0255 UTC 16 July 2018
Temperature: 15.0°C (59°F)
Dewpoint: 13.0°C (55°F) [RH = 88%]
Pressure (altimeter): 30.03 inches Hg (1017.0 mb)
Winds: from the NNW (340 degrees) at 8 MPH (7 knots; 3.6 m/s)
Visibility: 4 miles (6 km)
Ceiling: 300 feet AGL
Clouds: overcast cloud deck at 300 feet AGL
Weather: BR  (mist)

METAR text: KONP 160235Z AUTO 34008KT 5SM BR OVC005 15/13 A3002 RMK AO2
Conditions at: KONP (NEWPORT , OR, US) observed 0235 UTC 16 July 2018
Temperature: 15.0°C (59°F)
Dewpoint: 13.0°C (55°F) [RH = 88%]
Pressure (altimeter): 30.02 inches Hg (1016.7 mb)
Winds: from the NNW (340 degrees) at 9 MPH (8 knots; 4.2 m/s)
Visibility: 5 miles (8 km)
Ceiling: 500 feet AGL
Clouds: overcast cloud deck at 500 feet AGL
Weather: BR  (mist)

METAR text: KONP 160215Z AUTO 32007KT 4SM BR BKN005 16/14 A3002 RMK AO2
Conditions at: KONP (NEWPORT , OR, US) observed 0215 UTC 16 July 2018
Temperature: 16.0°C (61°F)
Dewpoint: 14.0°C (57°F) [RH = 88%]
Pressure (altimeter): 30.02 inches Hg (1016.7 mb)
Winds: from the NW (320 degrees) at 8 MPH (7 knots; 3.6 m/s)
Visibility: 4 miles (6 km)
Ceiling: 500 feet AGL
Clouds: broken clouds at 500 feet AGL
Weather: BR  (mist)

METAR text: KONP 160155Z AUTO 32008KT 5SM BR BKN005 16/14 A3002 RMK AO2
Conditions at: KONP (NEWPORT , OR, US) observed 0155 UTC 16 July 2018
Temperature: 16.0°C (61°F)
Dewpoint: 14.0°C (57°F) [RH = 88%]
Pressure (altimeter): 30.02 inches Hg (1016.7 mb)
Winds: from the NW (320 degrees) at 9 MPH (8 knots; 4.2 m/s)
Visibility: 5 miles (8 km)
Ceiling: 500 feet AGL
Clouds: broken clouds at 500 feet AGL
Weather: BR  (mist)

METAR text: KONP 160135Z AUTO 34007KT 5SM BR BKN005 16/14 A3002 RMK AO2
Conditions at: KONP (NEWPORT , OR, US) observed 0135 UTC 16 July 2018
Temperature: 16.0°C (61°F)
Dewpoint: 14.0°C (57°F) [RH = 88%]
Pressure (altimeter): 30.02 inches Hg (1016.7 mb)
Winds: from the NNW (340 degrees) at 8 MPH (7 knots; 3.6 m/s)
Visibility: 5 miles (8 km)
Ceiling: 500 feet AGL
Clouds: broken clouds at 500 feet AGL
Weather: BR  (mist)

METAR text: KONP 160115Z AUTO 32007KT 5SM BR OVC005 16/14 A3003 RMK AO2
Conditions at: KONP (NEWPORT , OR, US) observed 0115 UTC 16 July 2018
Temperature: 16.0°C (61°F)
Dewpoint: 14.0°C (57°F) [RH = 88%]
Pressure (altimeter): 30.03 inches Hg (1017.0 mb)
Winds: from the NW (320 degrees) at 8 MPH (7 knots; 3.6 m/s)
Visibility: 5 miles (8 km)
Ceiling: 500 feet AGL
Clouds: overcast cloud deck at 500 feet AGL
Weather: BR  (mist)

Forecast for: KONP (NEWPORT , OR, US)
Text: KONP 160124Z 1601/1624 33009KT 5SM BR OVC005
Forecast period: 0100 to 0800 UTC 16 July 2018
Forecast type: FROM: standard forecast or significant change
Winds: from the NNW (330 degrees) at 10 MPH (9 knots; 4.7 m/s)
Visibility: 5 miles (8 km)
Ceiling: 500 feet AGL
Clouds: overcast cloud deck at 500 feet AGL
Weather: BR  (mist)
Text: FM160800 VRB03KT 2SM BR BKN002
Forecast period: 0800 to 1800 UTC 16 July 2018
Forecast type: FROM: standard forecast or significant change
Winds: variable direction winds at 3 MPH (3 knots; 1.6 m/s)
Visibility: 2.00 miles (3.22 km)
Ceiling: 200 feet AGL
Clouds: broken clouds at 200 feet AGL
Weather: BR  (mist)
Text: FM161800 32007KT 5SM HZ FEW004
Forecast period: 1800 to 2000 UTC 16 July 2018
Forecast type: FROM: standard forecast or significant change
Winds: from the NW (320 degrees) at 8 MPH (7 knots; 3.6 m/s)
Visibility: 5 miles (8 km)
Clouds: few clouds at 400 feet AGL
Weather: HZ  (haze)
Text: FM162000 33014KT P6SM SKC
Forecast period: 2000 UTC 16 July 2018 to 0000 UTC 17 July 2018
Forecast type: FROM: standard forecast or significant change
Winds: from the NNW (330 degrees) at 16 MPH (14 knots; 7.3 m/s)
Visibility: 6 or more miles (10+ km)
Clouds: clear skies
Weather: no significant weather forecast for this period